sensor_id;sensor_type;location;lat;lon;timestamp;P1;durP1;ratioP1;P2;durP2;ratioP2
6033;SDS011;3045;43.226;27.858;2022-09-17T00:02:25;10.83;;;5.50;;
6033;SDS011;3045;43.226;27.858;2022-09-17T00:04:53;7.53;;;5.20;;
6033;SDS011;3045;43.226;27.858;2022-09-17T00:07:20;12.90;;;6.03;;
6033;SDS011;3045;43.226;27.858;2022-09-17T00:09:47;15.20;;;7.07;;
6033;SDS011;3045;43.226;27.858;2022-09-17T00:12:14;17.63;;;6.87;;
6033;SDS011;3045;43.226;27.858;2022-09-17T00:14:44;24.87;;;6.77;;
6033;SDS011;3045;43.226;27.858;2022-09-17T00:17:12;17.10;;;8.37;;
6033;SDS011;3045;43.226;27.858;2022-09-17T00:19:38;11.02;;;7.95;;
6033;SDS011;3045;43.226;27.858;2022-09-17T00:22:05;8.88;;;8.10;;
6033;SDS011;3045;43.226;27.858;2022-09-17T00:24:32;13.33;;;9.40;;
6033;SDS011;3045;43.226;27.858;2022-09-17T00:26:59;11.50;;;8.13;;
6033;SDS011;3045;43.226;27.858;2022-09-17T00:29:26;16.35;;;7.43;;
6033;SDS011;3045;43.226;27.858;2022-09-17T00:31:54;16.90;;;8.25;;
6033;SDS011;3045;43.226;27.858;2022-09-17T00:34:21;19.60;;;9.00;;
6033;SDS011;3045;43.226;27.858;2022-09-17T00:36:48;13.88;;;8.98;;
6033;SDS011;3045;43.226;27.858;2022-09-17T00:39:15;15.93;;;9.27;;
6033;SDS011;3045;43.226;27.858;2022-09-17T00:41:42;16.25;;;9.27;;
6033;SDS011;3045;43.226;27.858;2022-09-17T00:47:08;9.80;;;8.80;;
6033;SDS011;3045;43.226;27.858;2022-09-17T00:49:41;15.93;;;8.67;;
6033;SDS011;3045;43.226;27.858;2022-09-17T00:52:10;18.57;;;8.60;;
6033;SDS011;3045;43.226;27.858;2022-09-17T00:54:41;20.67;;;9.30;;
6033;SDS011;3045;43.226;27.858;2022-09-17T00:57:13;14.27;;;8.93;;
6033;SDS011;3045;43.226;27.858;2022-09-17T00:59:44;15.30;;;8.00;;
6033;SDS011;3045;43.226;27.858;2022-09-17T01:02:12;13.83;;;9.27;;
6033;SDS011;3045;43.226;27.858;2022-09-17T01:04:40;14.40;;;8.70;;
6033;SDS011;3045;43.226;27.858;2022-09-17T01:07:08;12.03;;;8.40;;
6033;SDS011;3045;43.226;27.858;2022-09-17T01:09:45;14.00;;;7.57;;
6033;SDS011;3045;43.226;27.858;2022-09-17T01:12:24;17.52;;;7.28;;
6033;SDS011;3045;43.226;27.858;2022-09-17T01:15:14;7.50;;;6.75;;
6033;SDS011;3045;43.226;27.858;2022-09-17T01:18:00;12.60;;;6.85;;
6033;SDS011;3045;43.226;27.858;2022-09-17T01:27:04;13.15;;;5.60;;
6033;SDS011;3045;43.226;27.858;2022-09-17T01:30:13;13.60;;;5.93;;
6033;SDS011;3045;43.226;27.858;2022-09-17T01:33:02;7.75;;;5.30;;
6033;SDS011;3045;43.226;27.858;2022-09-17T01:35:40;14.60;;;4.85;;
6033;SDS011;3045;43.226;27.858;2022-09-17T01:38:21;5.97;;;4.15;;
6033;SDS011;3045;43.226;27.858;2022-09-17T01:40:54;11.60;;;4.95;;
6033;SDS011;3045;43.226;27.858;2022-09-17T01:43:32;10.63;;;5.03;;
6033;SDS011;3045;43.226;27.858;2022-09-17T01:46:06;10.40;;;4.70;;
6033;SDS011;3045;43.226;27.858;2022-09-17T01:48:39;7.95;;;4.30;;
6033;SDS011;3045;43.226;27.858;2022-09-17T01:51:09;17.70;;;5.68;;
6033;SDS011;3045;43.226;27.858;2022-09-17T01:53:42;7.15;;;4.75;;
6033;SDS011;3045;43.226;27.858;2022-09-17T01:56:13;4.47;;;4.10;;
6033;SDS011;3045;43.226;27.858;2022-09-17T01:58:44;8.23;;;4.32;;
6033;SDS011;3045;43.226;27.858;2022-09-17T02:01:19;10.57;;;4.07;;
6033;SDS011;3045;43.226;27.858;2022-09-17T02:03:52;7.50;;;4.17;;
6033;SDS011;3045;43.226;27.858;2022-09-17T02:06:23;6.68;;;4.70;;
6033;SDS011;3045;43.226;27.858;2022-09-17T02:08:55;8.00;;;4.40;;
6033;SDS011;3045;43.226;27.858;2022-09-17T02:11:27;16.50;;;4.72;;
6033;SDS011;3045;43.226;27.858;2022-09-17T02:13:55;10.48;;;4.35;;
6033;SDS011;3045;43.226;27.858;2022-09-17T02:16:26;12.27;;;5.40;;
6033;SDS011;3045;43.226;27.858;2022-09-17T02:18:55;18.95;;;6.70;;
6033;SDS011;3045;43.226;27.858;2022-09-17T02:21:33;16.58;;;6.90;;
6033;SDS011;3045;43.226;27.858;2022-09-17T02:24:08;20.73;;;8.13;;
6033;SDS011;3045;43.226;27.858;2022-09-17T02:26:44;10.90;;;7.70;;
6033;SDS011;3045;43.226;27.858;2022-09-17T02:29:17;26.63;;;7.78;;
6033;SDS011;3045;43.226;27.858;2022-09-17T02:31:51;21.83;;;8.23;;
6033;SDS011;3045;43.226;27.858;2022-09-17T02:34:18;23.58;;;10.60;;
6033;SDS011;3045;43.226;27.858;2022-09-17T02:36:46;19.70;;;12.18;;
6033;SDS011;3045;43.226;27.858;2022-09-17T02:39:13;16.00;;;11.43;;
6033;SDS011;3045;43.226;27.858;2022-09-17T02:41:43;21.73;;;14.05;;
6033;SDS011;3045;43.226;27.858;2022-09-17T02:44:20;32.85;;;17.25;;
6033;SDS011;3045;43.226;27.858;2022-09-17T02:47:11;52.60;;;23.02;;
6033;SDS011;3045;43.226;27.858;2022-09-17T02:50:05;30.08;;;17.38;;
6033;SDS011;3045;43.226;27.858;2022-09-17T02:52:45;27.57;;;18.07;;
6033;SDS011;3045;43.226;27.858;2022-09-17T02:55:25;30.33;;;17.05;;
6033;SDS011;3045;43.226;27.858;2022-09-17T02:58:04;24.67;;;16.30;;
6033;SDS011;3045;43.226;27.858;2022-09-17T03:00:40;23.70;;;15.68;;
6033;SDS011;3045;43.226;27.858;2022-09-17T03:03:09;31.30;;;16.05;;
6033;SDS011;3045;43.226;27.858;2022-09-17T03:05:40;27.70;;;15.73;;
6033;SDS011;3045;43.226;27.858;2022-09-17T03:08:08;45.35;;;18.02;;
6033;SDS011;3045;43.226;27.858;2022-09-17T03:10:39;27.60;;;16.47;;
6033;SDS011;3045;43.226;27.858;2022-09-17T03:13:06;25.20;;;15.80;;
6033;SDS011;3045;43.226;27.858;2022-09-17T03:15:33;22.87;;;14.07;;
6033;SDS011;3045;43.226;27.858;2022-09-17T03:18:02;19.58;;;12.90;;
6033;SDS011;3045;43.226;27.858;2022-09-17T03:20:31;32.10;;;15.63;;
6033;SDS011;3045;43.226;27.858;2022-09-17T03:22:58;30.02;;;15.18;;
6033;SDS011;3045;43.226;27.858;2022-09-17T03:25:25;41.10;;;15.10;;
6033;SDS011;3045;43.226;27.858;2022-09-17T03:27:51;32.90;;;15.00;;
6033;SDS011;3045;43.226;27.858;2022-09-17T03:30:18;23.98;;;13.85;;
6033;SDS011;3045;43.226;27.858;2022-09-17T03:32:45;16.45;;;12.90;;
6033;SDS011;3045;43.226;27.858;2022-09-17T03:35:12;27.83;;;12.00;;
6033;SDS011;3045;43.226;27.858;2022-09-17T03:37:41;22.80;;;13.43;;
6033;SDS011;3045;43.226;27.858;2022-09-17T03:40:08;23.93;;;13.13;;
6033;SDS011;3045;43.226;27.858;2022-09-17T03:42:35;26.37;;;13.57;;
6033;SDS011;3045;43.226;27.858;2022-09-17T03:45:02;27.08;;;13.02;;
6033;SDS011;3045;43.226;27.858;2022-09-17T03:47:29;23.17;;;13.20;;
6033;SDS011;3045;43.226;27.858;2022-09-17T03:49:56;19.83;;;13.67;;
6033;SDS011;3045;43.226;27.858;2022-09-17T03:52:23;27.57;;;16.27;;
6033;SDS011;3045;43.226;27.858;2022-09-17T03:54:54;24.27;;;17.63;;
6033;SDS011;3045;43.226;27.858;2022-09-17T03:57:21;30.63;;;18.17;;
6033;SDS011;3045;43.226;27.858;2022-09-17T03:59:48;32.20;;;16.17;;
6033;SDS011;3045;43.226;27.858;2022-09-17T04:02:15;31.00;;;15.13;;
6033;SDS011;3045;43.226;27.858;2022-09-17T04:04:44;34.47;;;17.13;;
6033;SDS011;3045;43.226;27.858;2022-09-17T04:07:11;30.70;;;16.07;;
6033;SDS011;3045;43.226;27.858;2022-09-17T04:09:38;23.83;;;15.83;;
6033;SDS011;3045;43.226;27.858;2022-09-17T04:12:06;28.93;;;15.73;;
6033;SDS011;3045;43.226;27.858;2022-09-17T04:14:33;22.93;;;16.00;;
6033;SDS011;3045;43.226;27.858;2022-09-17T04:17:00;29.17;;;16.27;;
6033;SDS011;3045;43.226;27.858;2022-09-17T04:19:27;31.63;;;15.63;;
6033;SDS011;3045;43.226;27.858;2022-09-17T04:21:54;27.20;;;15.30;;
6033;SDS011;3045;43.226;27.858;2022-09-17T04:24:21;28.37;;;14.67;;
6033;SDS011;3045;43.226;27.858;2022-09-17T04:26:48;21.42;;;13.75;;
6033;SDS011;3045;43.226;27.858;2022-09-17T04:29:16;36.25;;;15.65;;
6033;SDS011;3045;43.226;27.858;2022-09-17T04:31:43;37.90;;;15.55;;
6033;SDS011;3045;43.226;27.858;2022-09-17T04:34:10;34.63;;;12.55;;
6033;SDS011;3045;43.226;27.858;2022-09-17T04:36:36;23.70;;;11.88;;
6033;SDS011;3045;43.226;27.858;2022-09-17T04:39:03;19.67;;;10.23;;
6033;SDS011;3045;43.226;27.858;2022-09-17T04:41:30;18.60;;;10.65;;
6033;SDS011;3045;43.226;27.858;2022-09-17T04:43:57;24.27;;;9.35;;
6033;SDS011;3045;43.226;27.858;2022-09-17T04:46:25;16.88;;;8.80;;
6033;SDS011;3045;43.226;27.858;2022-09-17T04:48:52;18.77;;;9.18;;
6033;SDS011;3045;43.226;27.858;2022-09-17T04:51:19;25.20;;;9.18;;
6033;SDS011;3045;43.226;27.858;2022-09-17T04:53:46;15.52;;;8.38;;
6033;SDS011;3045;43.226;27.858;2022-09-17T04:56:13;16.58;;;8.55;;
6033;SDS011;3045;43.226;27.858;2022-09-17T04:58:40;18.92;;;9.27;;
6033;SDS011;3045;43.226;27.858;2022-09-17T05:01:07;20.00;;;13.10;;
6033;SDS011;3045;43.226;27.858;2022-09-17T05:03:35;27.60;;;15.23;;
6033;SDS011;3045;43.226;27.858;2022-09-17T05:06:02;17.85;;;11.50;;
6033;SDS011;3045;43.226;27.858;2022-09-17T05:08:29;26.58;;;13.32;;
6033;SDS011;3045;43.226;27.858;2022-09-17T05:10:58;32.83;;;12.40;;
6033;SDS011;3045;43.226;27.858;2022-09-17T05:13:25;35.35;;;14.68;;
6033;SDS011;3045;43.226;27.858;2022-09-17T05:15:53;31.00;;;16.80;;
6033;SDS011;3045;43.226;27.858;2022-09-17T05:18:20;38.67;;;16.63;;
6033;SDS011;3045;43.226;27.858;2022-09-17T05:20:48;50.00;;;18.50;;
6033;SDS011;3045;43.226;27.858;2022-09-17T05:23:15;61.30;;;23.17;;
6033;SDS011;3045;43.226;27.858;2022-09-17T05:25:42;93.95;;;38.67;;
6033;SDS011;3045;43.226;27.858;2022-09-17T05:28:09;71.00;;;32.95;;
6033;SDS011;3045;43.226;27.858;2022-09-17T05:30:36;54.95;;;25.70;;
6033;SDS011;3045;43.226;27.858;2022-09-17T05:33:04;29.80;;;20.42;;
6033;SDS011;3045;43.226;27.858;2022-09-17T05:35:33;34.95;;;19.40;;
6033;SDS011;3045;43.226;27.858;2022-09-17T05:38:03;33.20;;;21.23;;
6033;SDS011;3045;43.226;27.858;2022-09-17T05:40:31;27.25;;;20.98;;
6033;SDS011;3045;43.226;27.858;2022-09-17T05:42:59;32.17;;;21.50;;
6033;SDS011;3045;43.226;27.858;2022-09-17T05:45:26;27.05;;;20.15;;
6033;SDS011;3045;43.226;27.858;2022-09-17T05:47:54;30.92;;;20.10;;
6033;SDS011;3045;43.226;27.858;2022-09-17T05:50:21;35.50;;;20.00;;
6033;SDS011;3045;43.226;27.858;2022-09-17T05:52:49;43.55;;;19.52;;
6033;SDS011;3045;43.226;27.858;2022-09-17T05:55:17;34.17;;;19.63;;
6033;SDS011;3045;43.226;27.858;2022-09-17T05:57:46;33.15;;;18.70;;
6033;SDS011;3045;43.226;27.858;2022-09-17T06:00:13;28.35;;;17.35;;
6033;SDS011;3045;43.226;27.858;2022-09-17T06:02:41;25.35;;;15.20;;
6033;SDS011;3045;43.226;27.858;2022-09-17T06:05:08;20.42;;;13.85;;
6033;SDS011;3045;43.226;27.858;2022-09-17T06:07:35;30.42;;;15.43;;
6033;SDS011;3045;43.226;27.858;2022-09-17T06:10:02;35.30;;;15.45;;
6033;SDS011;3045;43.226;27.858;2022-09-17T06:12:32;44.42;;;16.38;;
6033;SDS011;3045;43.226;27.858;2022-09-17T06:14:59;48.72;;;18.00;;
6033;SDS011;3045;43.226;27.858;2022-09-17T06:17:26;42.70;;;17.73;;
6033;SDS011;3045;43.226;27.858;2022-09-17T06:19:53;39.88;;;16.80;;
6033;SDS011;3045;43.226;27.858;2022-09-17T06:22:20;44.63;;;20.50;;
6033;SDS011;3045;43.226;27.858;2022-09-17T06:24:47;65.85;;;25.65;;
6033;SDS011;3045;43.226;27.858;2022-09-17T06:27:14;43.83;;;20.17;;
6033;SDS011;3045;43.226;27.858;2022-09-17T06:29:42;40.47;;;20.00;;
6033;SDS011;3045;43.226;27.858;2022-09-17T06:32:09;39.42;;;21.30;;
6033;SDS011;3045;43.226;27.858;2022-09-17T06:34:37;51.38;;;24.15;;
6033;SDS011;3045;43.226;27.858;2022-09-17T06:37:04;52.90;;;25.20;;
6033;SDS011;3045;43.226;27.858;2022-09-17T06:39:31;53.80;;;26.83;;
6033;SDS011;3045;43.226;27.858;2022-09-17T06:41:58;41.80;;;25.02;;
6033;SDS011;3045;43.226;27.858;2022-09-17T06:44:25;46.20;;;23.77;;
6033;SDS011;3045;43.226;27.858;2022-09-17T06:46:53;40.55;;;23.27;;
6033;SDS011;3045;43.226;27.858;2022-09-17T06:49:22;37.30;;;20.38;;
6033;SDS011;3045;43.226;27.858;2022-09-17T06:51:49;34.67;;;21.17;;
6033;SDS011;3045;43.226;27.858;2022-09-17T06:54:17;46.05;;;20.95;;
6033;SDS011;3045;43.226;27.858;2022-09-17T06:56:44;25.08;;;13.85;;
6033;SDS011;3045;43.226;27.858;2022-09-17T06:59:12;23.05;;;11.07;;
6033;SDS011;3045;43.226;27.858;2022-09-17T07:01:38;8.52;;;6.53;;
6033;SDS011;3045;43.226;27.858;2022-09-17T07:04:07;17.85;;;10.00;;
6033;SDS011;3045;43.226;27.858;2022-09-17T07:06:35;18.08;;;9.05;;
6033;SDS011;3045;43.226;27.858;2022-09-17T07:09:02;13.77;;;8.20;;
6033;SDS011;3045;43.226;27.858;2022-09-17T07:11:29;11.35;;;6.70;;
6033;SDS011;3045;43.226;27.858;2022-09-17T07:13:56;15.20;;;5.93;;
6033;SDS011;3045;43.226;27.858;2022-09-17T07:16:23;21.05;;;6.05;;
6033;SDS011;3045;43.226;27.858;2022-09-17T07:18:50;20.92;;;8.27;;
6033;SDS011;3045;43.226;27.858;2022-09-17T07:21:19;12.00;;;7.45;;
6033;SDS011;3045;43.226;27.858;2022-09-17T07:23:46;17.67;;;7.45;;
6033;SDS011;3045;43.226;27.858;2022-09-17T07:26:13;9.77;;;6.65;;
6033;SDS011;3045;43.226;27.858;2022-09-17T07:28:41;19.90;;;8.00;;
6033;SDS011;3045;43.226;27.858;2022-09-17T07:31:10;11.18;;;8.05;;
6033;SDS011;3045;43.226;27.858;2022-09-17T07:33:38;16.38;;;10.20;;
6033;SDS011;3045;43.226;27.858;2022-09-17T07:36:06;9.30;;;7.13;;
6033;SDS011;3045;43.226;27.858;2022-09-17T07:38:35;13.00;;;10.60;;
6033;SDS011;3045;43.226;27.858;2022-09-17T07:41:04;20.95;;;11.15;;
6033;SDS011;3045;43.226;27.858;2022-09-17T07:43:33;8.25;;;6.65;;
6033;SDS011;3045;43.226;27.858;2022-09-17T07:46:02;14.45;;;7.88;;
6033;SDS011;3045;43.226;27.858;2022-09-17T07:48:30;8.95;;;5.25;;
6033;SDS011;3045;43.226;27.858;2022-09-17T07:50:57;20.85;;;10.65;;
6033;SDS011;3045;43.226;27.858;2022-09-17T07:53:24;9.63;;;6.15;;
6033;SDS011;3045;43.226;27.858;2022-09-17T07:55:53;18.95;;;7.95;;
6033;SDS011;3045;43.226;27.858;2022-09-17T07:58:22;16.30;;;7.68;;
6033;SDS011;3045;43.226;27.858;2022-09-17T08:00:50;10.55;;;6.70;;
6033;SDS011;3045;43.226;27.858;2022-09-17T08:03:17;11.00;;;8.65;;
6033;SDS011;3045;43.226;27.858;2022-09-17T08:05:44;15.45;;;7.13;;
6033;SDS011;3045;43.226;27.858;2022-09-17T08:08:12;7.68;;;6.68;;
6033;SDS011;3045;43.226;27.858;2022-09-17T08:10:39;11.10;;;6.00;;
6033;SDS011;3045;43.226;27.858;2022-09-17T08:13:07;11.15;;;5.05;;
6033;SDS011;3045;43.226;27.858;2022-09-17T08:15:34;6.38;;;4.15;;
6033;SDS011;3045;43.226;27.858;2022-09-17T08:18:01;8.45;;;4.15;;
6033;SDS011;3045;43.226;27.858;2022-09-17T08:20:27;11.05;;;4.50;;
6033;SDS011;3045;43.226;27.858;2022-09-17T08:22:58;7.78;;;4.50;;
6033;SDS011;3045;43.226;27.858;2022-09-17T08:25:25;10.10;;;3.92;;
6033;SDS011;3045;43.226;27.858;2022-09-17T08:27:53;15.10;;;4.03;;
6033;SDS011;3045;43.226;27.858;2022-09-17T08:30:22;3.47;;;3.22;;
6033;SDS011;3045;43.226;27.858;2022-09-17T08:32:49;6.97;;;3.63;;
6033;SDS011;3045;43.226;27.858;2022-09-17T08:35:16;7.80;;;3.50;;
6033;SDS011;3045;43.226;27.858;2022-09-17T08:37:43;11.48;;;4.63;;
6033;SDS011;3045;43.226;27.858;2022-09-17T08:40:12;8.23;;;3.67;;
6033;SDS011;3045;43.226;27.858;2022-09-17T08:42:48;6.97;;;3.45;;
6033;SDS011;3045;43.226;27.858;2022-09-17T08:45:22;6.38;;;3.45;;
6033;SDS011;3045;43.226;27.858;2022-09-17T08:47:50;5.85;;;4.15;;
6033;SDS011;3045;43.226;27.858;2022-09-17T08:50:25;6.05;;;3.50;;
6033;SDS011;3045;43.226;27.858;2022-09-17T08:55:50;11.13;;;3.20;;
6033;SDS011;3045;43.226;27.858;2022-09-17T09:01:24;12.63;;;4.32;;
6033;SDS011;3045;43.226;27.858;2022-09-17T09:04:03;6.97;;;4.35;;
6033;SDS011;3045;43.226;27.858;2022-09-17T09:06:44;7.22;;;3.40;;
6033;SDS011;3045;43.226;27.858;2022-09-17T09:09:15;11.68;;;3.95;;
6033;SDS011;3045;43.226;27.858;2022-09-17T09:11:43;10.10;;;3.63;;
6033;SDS011;3045;43.226;27.858;2022-09-17T09:14:14;13.13;;;3.70;;
6033;SDS011;3045;43.226;27.858;2022-09-17T09:16:46;6.45;;;3.33;;
6033;SDS011;3045;43.226;27.858;2022-09-17T09:19:20;8.60;;;4.18;;
6033;SDS011;3045;43.226;27.858;2022-09-17T09:22:00;10.77;;;3.20;;
6033;SDS011;3045;43.226;27.858;2022-09-17T09:24:33;6.55;;;3.30;;
6033;SDS011;3045;43.226;27.858;2022-09-17T09:27:12;7.30;;;3.63;;
6033;SDS011;3045;43.226;27.858;2022-09-17T09:29:44;5.22;;;3.85;;
6033;SDS011;3045;43.226;27.858;2022-09-17T09:32:26;11.52;;;3.92;;
6033;SDS011;3045;43.226;27.858;2022-09-17T09:35:10;5.50;;;3.63;;
6033;SDS011;3045;43.226;27.858;2022-09-17T09:37:42;17.17;;;4.13;;
6033;SDS011;3045;43.226;27.858;2022-09-17T09:40:19;15.43;;;3.88;;
6033;SDS011;3045;43.226;27.858;2022-09-17T09:42:53;3.50;;;3.20;;
6033;SDS011;3045;43.226;27.858;2022-09-17T09:45:28;8.38;;;3.40;;
6033;SDS011;3045;43.226;27.858;2022-09-17T09:48:10;9.35;;;3.83;;
6033;SDS011;3045;43.226;27.858;2022-09-17T09:50:46;4.50;;;3.22;;
6033;SDS011;3045;43.226;27.858;2022-09-17T09:53:29;5.53;;;3.50;;
6033;SDS011;3045;43.226;27.858;2022-09-17T09:56:10;8.65;;;3.90;;
6033;SDS011;3045;43.226;27.858;2022-09-17T09:58:53;5.88;;;3.60;;
6033;SDS011;3045;43.226;27.858;2022-09-17T10:01:20;3.95;;;3.53;;
6033;SDS011;3045;43.226;27.858;2022-09-17T10:03:49;5.20;;;3.67;;
6033;SDS011;3045;43.226;27.858;2022-09-17T10:06:18;5.13;;;3.22;;
6033;SDS011;3045;43.226;27.858;2022-09-17T10:11:37;7.63;;;3.72;;
6033;SDS011;3045;43.226;27.858;2022-09-17T10:14:18;4.03;;;3.63;;
6033;SDS011;3045;43.226;27.858;2022-09-17T10:16:48;7.10;;;3.38;;
6033;SDS011;3045;43.226;27.858;2022-09-17T10:19:19;6.15;;;3.78;;
6033;SDS011;3045;43.226;27.858;2022-09-17T10:21:49;5.30;;;3.75;;
6033;SDS011;3045;43.226;27.858;2022-09-17T10:24:20;6.30;;;3.40;;
6033;SDS011;3045;43.226;27.858;2022-09-17T10:26:50;5.75;;;3.45;;
6033;SDS011;3045;43.226;27.858;2022-09-17T10:29:18;4.90;;;3.63;;
6033;SDS011;3045;43.226;27.858;2022-09-17T10:31:47;3.60;;;3.30;;
6033;SDS011;3045;43.226;27.858;2022-09-17T10:34:20;4.75;;;3.53;;
6033;SDS011;3045;43.226;27.858;2022-09-17T10:36:49;3.75;;;3.45;;
6033;SDS011;3045;43.226;27.858;2022-09-17T10:42:11;4.63;;;3.70;;
6033;SDS011;3045;43.226;27.858;2022-09-17T10:44:49;4.85;;;3.80;;
6033;SDS011;3045;43.226;27.858;2022-09-17T10:47:18;4.05;;;3.50;;
6033;SDS011;3045;43.226;27.858;2022-09-17T10:49:52;8.73;;;3.67;;
6033;SDS011;3045;43.226;27.858;2022-09-17T10:52:22;6.18;;;4.22;;
6033;SDS011;3045;43.226;27.858;2022-09-17T10:54:58;6.30;;;4.00;;
6033;SDS011;3045;43.226;27.858;2022-09-17T10:57:38;5.32;;;4.03;;
6033;SDS011;3045;43.226;27.858;2022-09-17T11:00:18;11.65;;;4.20;;
6033;SDS011;3045;43.226;27.858;2022-09-17T11:08:52;5.03;;;4.50;;
6033;SDS011;3045;43.226;27.858;2022-09-17T11:11:29;4.25;;;3.95;;
6033;SDS011;3045;43.226;27.858;2022-09-17T11:14:09;9.10;;;4.43;;
6033;SDS011;3045;43.226;27.858;2022-09-17T11:16:46;7.30;;;4.32;;
6033;SDS011;3045;43.226;27.858;2022-09-17T11:19:26;7.28;;;4.45;;
6033;SDS011;3045;43.226;27.858;2022-09-17T11:22:06;4.90;;;4.40;;
6033;SDS011;3045;43.226;27.858;2022-09-17T11:24:54;8.25;;;4.28;;
6033;SDS011;3045;43.226;27.858;2022-09-17T11:27:42;5.65;;;4.05;;
6033;SDS011;3045;43.226;27.858;2022-09-17T11:30:18;4.63;;;4.20;;
6033;SDS011;3045;43.226;27.858;2022-09-17T11:35:47;7.13;;;4.38;;
6033;SDS011;3045;43.226;27.858;2022-09-17T11:38:21;7.38;;;4.45;;
6033;SDS011;3045;43.226;27.858;2022-09-17T11:40:56;5.15;;;4.40;;
6033;SDS011;3045;43.226;27.858;2022-09-17T11:43:29;7.28;;;4.03;;
6033;SDS011;3045;43.226;27.858;2022-09-17T11:45:59;10.07;;;4.60;;
6033;SDS011;3045;43.226;27.858;2022-09-17T11:48:35;4.82;;;4.30;;
6033;SDS011;3045;43.226;27.858;2022-09-17T11:51:11;6.35;;;4.35;;
6033;SDS011;3045;43.226;27.858;2022-09-17T11:53:48;10.43;;;4.55;;
6033;SDS011;3045;43.226;27.858;2022-09-17T11:56:19;8.93;;;4.18;;
6033;SDS011;3045;43.226;27.858;2022-09-17T11:58:52;9.38;;;4.32;;
6033;SDS011;3045;43.226;27.858;2022-09-17T12:01:25;6.75;;;4.05;;
6033;SDS011;3045;43.226;27.858;2022-09-17T12:03:57;7.57;;;3.88;;
6033;SDS011;3045;43.226;27.858;2022-09-17T12:06:30;5.25;;;4.38;;
6033;SDS011;3045;43.226;27.858;2022-09-17T12:09:07;5.53;;;4.53;;
6033;SDS011;3045;43.226;27.858;2022-09-17T12:11:40;4.90;;;4.47;;
6033;SDS011;3045;43.226;27.858;2022-09-17T12:14:13;7.15;;;4.03;;
6033;SDS011;3045;43.226;27.858;2022-09-17T12:16:47;6.32;;;4.57;;
6033;SDS011;3045;43.226;27.858;2022-09-17T12:19:18;8.98;;;4.80;;
6033;SDS011;3045;43.226;27.858;2022-09-17T12:21:51;9.88;;;4.88;;
6033;SDS011;3045;43.226;27.858;2022-09-17T12:24:23;6.10;;;4.60;;
6033;SDS011;3045;43.226;27.858;2022-09-17T12:27:01;7.78;;;4.57;;
6033;SDS011;3045;43.226;27.858;2022-09-17T12:29:38;5.35;;;4.82;;
6033;SDS011;3045;43.226;27.858;2022-09-17T12:32:21;5.53;;;4.65;;
6033;SDS011;3045;43.226;27.858;2022-09-17T12:35:01;6.15;;;4.88;;
6033;SDS011;3045;43.226;27.858;2022-09-17T12:37:37;8.90;;;5.07;;
6033;SDS011;3045;43.226;27.858;2022-09-17T12:40:15;8.43;;;4.75;;
6033;SDS011;3045;43.226;27.858;2022-09-17T12:42:57;6.65;;;4.55;;
6033;SDS011;3045;43.226;27.858;2022-09-17T12:45:42;15.57;;;4.80;;
6033;SDS011;3045;43.226;27.858;2022-09-17T12:51:43;10.88;;;5.13;;
6033;SDS011;3045;43.226;27.858;2022-09-17T12:54:21;9.93;;;5.03;;
6033;SDS011;3045;43.226;27.858;2022-09-17T12:57:09;7.50;;;4.75;;
6033;SDS011;3045;43.226;27.858;2022-09-17T12:59:48;7.50;;;4.72;;
6033;SDS011;3045;43.226;27.858;2022-09-17T13:02:23;9.38;;;5.35;;
6033;SDS011;3045;43.226;27.858;2022-09-17T13:05:10;6.28;;;5.35;;
6033;SDS011;3045;43.226;27.858;2022-09-17T13:07:58;5.32;;;4.93;;
6033;SDS011;3045;43.226;27.858;2022-09-17T13:10:39;7.57;;;4.75;;
6033;SDS011;3045;43.226;27.858;2022-09-17T13:13:23;5.78;;;5.00;;
6033;SDS011;3045;43.226;27.858;2022-09-17T13:16:03;6.50;;;5.13;;
6033;SDS011;3045;43.226;27.858;2022-09-17T13:18:38;5.82;;;4.82;;
6033;SDS011;3045;43.226;27.858;2022-09-17T13:21:13;9.48;;;4.80;;
6033;SDS011;3045;43.226;27.858;2022-09-17T13:23:48;7.25;;;5.10;;
6033;SDS011;3045;43.226;27.858;2022-09-17T13:26:19;13.77;;;4.78;;
6033;SDS011;3045;43.226;27.858;2022-09-17T13:28:59;7.28;;;4.45;;
6033;SDS011;3045;43.226;27.858;2022-09-17T13:34:28;4.25;;;3.45;;
6033;SDS011;3045;43.226;27.858;2022-09-17T13:36:56;4.13;;;3.55;;
6033;SDS011;3045;43.226;27.858;2022-09-17T13:39:38;10.98;;;3.67;;
6033;SDS011;3045;43.226;27.858;2022-09-17T13:42:08;14.13;;;4.60;;
6033;SDS011;3045;43.226;27.858;2022-09-17T13:44:41;25.88;;;6.45;;
6033;SDS011;3045;43.226;27.858;2022-09-17T13:47:12;22.65;;;7.60;;
6033;SDS011;3045;43.226;27.858;2022-09-17T13:49:47;12.85;;;6.47;;
6033;SDS011;3045;43.226;27.858;2022-09-17T13:52:36;14.43;;;6.53;;
6033;SDS011;3045;43.226;27.858;2022-09-17T13:55:06;9.98;;;5.72;;
6033;SDS011;3045;43.226;27.858;2022-09-17T13:57:44;13.07;;;6.78;;
6033;SDS011;3045;43.226;27.858;2022-09-17T14:09:30;18.45;;;7.35;;
6033;SDS011;3045;43.226;27.858;2022-09-17T14:11:59;15.77;;;7.53;;
6033;SDS011;3045;43.226;27.858;2022-09-17T14:14:39;10.77;;;6.82;;
6033;SDS011;3045;43.226;27.858;2022-09-17T14:20:16;9.05;;;4.47;;
6033;SDS011;3045;43.226;27.858;2022-09-17T14:22:52;7.53;;;3.40;;
6033;SDS011;3045;43.226;27.858;2022-09-17T14:25:21;11.63;;;4.10;;
6033;SDS011;3045;43.226;27.858;2022-09-17T14:27:56;6.18;;;3.30;;
6033;SDS011;3045;43.226;27.858;2022-09-17T14:30:29;7.70;;;3.08;;
6033;SDS011;3045;43.226;27.858;2022-09-17T14:33:01;3.45;;;2.80;;
6033;SDS011;3045;43.226;27.858;2022-09-17T14:35:33;6.75;;;2.65;;
6033;SDS011;3045;43.226;27.858;2022-09-17T14:38:03;4.22;;;2.30;;
6033;SDS011;3045;43.226;27.858;2022-09-17T14:40:39;4.43;;;1.90;;
6033;SDS011;3045;43.226;27.858;2022-09-17T14:43:09;7.53;;;1.85;;
6033;SDS011;3045;43.226;27.858;2022-09-17T14:45:47;2.15;;;1.40;;
6033;SDS011;3045;43.226;27.858;2022-09-17T14:48:29;4.32;;;1.83;;
6033;SDS011;3045;43.226;27.858;2022-09-17T14:51:10;7.28;;;2.17;;
6033;SDS011;3045;43.226;27.858;2022-09-17T14:56:45;2.45;;;1.77;;
6033;SDS011;3045;43.226;27.858;2022-09-17T14:59:18;1.92;;;1.60;;
6033;SDS011;3045;43.226;27.858;2022-09-17T15:01:51;2.65;;;1.73;;
6033;SDS011;3045;43.226;27.858;2022-09-17T15:04:24;1.75;;;1.55;;
6033;SDS011;3045;43.226;27.858;2022-09-17T15:06:52;2.22;;;1.58;;
6033;SDS011;3045;43.226;27.858;2022-09-17T15:09:32;5.97;;;1.92;;
6033;SDS011;3045;43.226;27.858;2022-09-17T15:11:59;2.47;;;1.23;;
6033;SDS011;3045;43.226;27.858;2022-09-17T15:14:27;1.52;;;1.45;;
6033;SDS011;3045;43.226;27.858;2022-09-17T15:16:56;1.55;;;1.40;;
6033;SDS011;3045;43.226;27.858;2022-09-17T15:19:27;1.48;;;1.38;;
6033;SDS011;3045;43.226;27.858;2022-09-17T15:21:57;3.25;;;1.70;;
6033;SDS011;3045;43.226;27.858;2022-09-17T15:24:32;1.83;;;1.60;;
6033;SDS011;3045;43.226;27.858;2022-09-17T15:27:05;1.63;;;1.38;;
6033;SDS011;3045;43.226;27.858;2022-09-17T15:29:43;4.18;;;1.55;;
6033;SDS011;3045;43.226;27.858;2022-09-17T15:32:12;2.10;;;1.33;;
6033;SDS011;3045;43.226;27.858;2022-09-17T15:34:41;2.30;;;1.52;;
6033;SDS011;3045;43.226;27.858;2022-09-17T15:37:15;4.05;;;1.73;;
6033;SDS011;3045;43.226;27.858;2022-09-17T15:39:46;3.03;;;1.90;;
6033;SDS011;3045;43.226;27.858;2022-09-17T15:42:16;6.53;;;2.08;;
6033;SDS011;3045;43.226;27.858;2022-09-17T15:44:45;3.60;;;1.70;;
6033;SDS011;3045;43.226;27.858;2022-09-17T15:50:17;4.15;;;1.73;;
6033;SDS011;3045;43.226;27.858;2022-09-17T15:52:46;3.38;;;1.60;;
6033;SDS011;3045;43.226;27.858;2022-09-17T15:55:27;7.43;;;2.05;;
6033;SDS011;3045;43.226;27.858;2022-09-17T15:58:00;18.02;;;3.45;;
6033;SDS011;3045;43.226;27.858;2022-09-17T16:00:29;6.63;;;2.95;;
6033;SDS011;3045;43.226;27.858;2022-09-17T16:02:56;7.25;;;2.33;;
6033;SDS011;3045;43.226;27.858;2022-09-17T16:08:16;5.95;;;2.58;;
6033;SDS011;3045;43.226;27.858;2022-09-17T16:10:45;2.42;;;2.00;;
6033;SDS011;3045;43.226;27.858;2022-09-17T16:13:11;7.88;;;2.53;;
6033;SDS011;3045;43.226;27.858;2022-09-17T16:15:38;4.32;;;2.42;;